createdAt,value
2022-12-11T00:03:46.097Z,-0.10437460806856187
2022-12-11T00:10:16.555Z,-0.03222786893812709
2022-12-11T00:16:49.901Z,0.025232545986622074
2022-12-11T00:23:28.126Z,-0.034801552048494985
2022-12-11T00:32:28.756Z,0.03363359636287625
2022-12-11T00:46:26.314Z,-0.35175193352842804
2022-12-11T00:57:32.364Z,-0.15886614234949836
2022-12-11T01:06:32.033Z,0.05153179870401338
2022-12-11T01:12:58.653Z,0.1106396321070234
2022-12-11T01:21:45.819Z,0.022855481814381275
2022-12-11T01:32:48.723Z,0.04587492161371237
2022-12-11T01:39:13.015Z,0.05989822846989966
2022-12-11T01:45:40.128Z,0.07111138691471573
2022-12-11T01:52:05.128Z,0.05458559782608697
2022-12-11T01:58:30.309Z,0.14354815530936454
2022-12-11T02:06:13.108Z,0.17201674853678933
2022-12-11T02:14:49.677Z,-0.09894701086956521
2022-12-11T02:21:14.435Z,0.0001424017558528455
2022-12-11T02:27:39.468Z,-0.1749379441889632
2022-12-11T02:34:11.882Z,-0.2762313179347826
2022-12-11T02:40:38.955Z,-0.2259948526337793
2022-12-11T02:47:03.914Z,-0.2396667276337793
2022-12-11T02:53:29.004Z,-0.4739672606605352
2022-12-11T02:59:54.129Z,-0.22607258570234115
2022-12-11T03:15:22.590Z,-0.3225406302257525
2022-12-11T03:29:29.969Z,-0.35596846258361203
2022-12-11T03:35:55.445Z,-0.24822455058528425
2022-12-11T03:43:35.784Z,-0.34206861413043477
2022-12-11T03:50:14.011Z,-0.25015285326086956
2022-12-11T03:56:39.531Z,-0.07461329431438128
2022-12-11T04:03:13.019Z,-0.19945913461538464
2022-12-11T04:09:39.775Z,-0.23557235054347828
2022-12-11T04:16:06.391Z,-0.382848427048495
2022-12-11T04:22:31.732Z,-0.5024254023829432
2022-12-11T04:28:57.480Z,-0.34111164820234113
2022-12-11T04:35:24.776Z,-0.41103025710702346
2022-12-11T04:41:51.022Z,-0.268345004180602
2022-12-11T04:54:47.072Z,-0.2855730037625418
2022-12-11T05:01:14.365Z,-0.44934743415551837
2022-12-11T05:07:40.177Z,-0.425427858486622
2022-12-11T05:14:06.091Z,-0.23795725334448162
2022-12-11T05:23:15.817Z,-0.22589686977424753
2022-12-11T05:29:42.383Z,-0.3332775919732442
2022-12-11T05:36:08.890Z,-0.2367213628762542
2022-12-11T05:42:35.087Z,-0.3366749843227425
2022-12-11T05:49:01.502Z,-0.2171972982859532
2022-12-11T05:59:25.856Z,-0.3829176682692308
2022-12-11T06:09:21.947Z,-0.35258609427257526
2022-12-11T06:15:48.311Z,-0.37851301212374583
2022-12-11T06:28:13.245Z,-0.34154407922240804
2022-12-11T06:34:38.892Z,-0.2904466711956522
2022-12-11T06:41:05.067Z,-0.21383517976588629
2022-12-11T06:47:30.596Z,-0.2938538618311037
2022-12-11T06:54:56.720Z,-0.22965091973244148
2022-12-11T07:01:22.802Z,-0.37154447115384615
2022-12-11T07:07:48.304Z,-0.32277317621237456
2022-12-11T07:18:44.203Z,-0.46839203595317735
2022-12-11T07:25:13.671Z,-0.435546875
2022-12-11T07:32:31.792Z,-0.43339647784280927
2022-12-11T07:39:01.151Z,-0.47226562499999997
2022-12-11T07:45:26.855Z,-0.26904917433110365
2022-12-11T07:51:52.072Z,-0.1268473035117057
2022-12-11T07:58:17.836Z,-0.08492109113712375
2022-12-11T08:08:50.653Z,-0.09431960702341137
2022-12-11T08:15:29.801Z,-0.03899260556020068
2022-12-11T08:22:00.258Z,-0.28939629494147157
2022-12-11T08:28:35.928Z,-0.1744774247491639
2022-12-11T08:35:19.827Z,0.07334996864548494
2022-12-11T08:41:54.523Z,-0.07905583716555185
2022-12-11T08:48:29.171Z,-0.28062356291806023
2022-12-11T09:01:27.300Z,-0.19958455267558528
2022-12-11T09:08:34.791Z,-0.4911835022993311
2022-12-11T09:21:29.889Z,-0.18667890363712375
2022-12-11T09:30:51.058Z,-0.1268277069397993
2022-12-11T09:37:23.448Z,-0.28304569920568556
2022-12-11T09:44:25.783Z,-0.21602346362876254
2022-12-11T09:52:20.294Z,0.017091476797658867
2022-12-11T10:02:57.601Z,-0.02120414402173913
2022-12-11T10:09:27.175Z,-0.058794941471571924
2022-12-11T10:15:58.202Z,-0.06405335493311036
2022-12-11T10:22:33.407Z,-0.18171378553511705
2022-12-11T10:34:03.841Z,-0.06066641408862876
2022-12-11T10:40:34.615Z,0.05468619356187292
2022-12-11T10:48:45.464Z,0.13806372805183947
2022-12-11T10:55:11.331Z,0.029767192725752508
2022-12-11T11:02:47.819Z,0.07223492370401337
2022-12-11T11:09:16.752Z,0.13567817203177257
2022-12-11T11:15:44.918Z,0.1954699257943144
2022-12-11T11:22:13.340Z,-0.0194574362458194
2022-12-11T11:46:32.856Z,0.5948186663879599
2022-12-11T11:52:59.916Z,0.6945351693143812
2022-12-11T12:02:57.117Z,0.719710885242475
2022-12-11T12:09:25.706Z,0.848359766931438
2022-12-11T12:15:54.885Z,0.8480449153428093
2022-12-11T12:24:50.263Z,0.5820057744565218
2022-12-11T12:31:21.933Z,0.5217593802257525
2022-12-11T12:37:49.645Z,0.592606866638796
2022-12-11T12:49:16.877Z,0.6631061872909698
2022-12-11T12:58:58.316Z,0.3106010921822742
2022-12-11T13:05:51.905Z,0.4764743154264214
2022-12-11T13:17:00.886Z,0.7103110629180602
2022-12-11T13:24:33.429Z,0.47911397366220737
2022-12-11T13:34:17.755Z,0.7934455999163879
2022-12-11T13:40:43.602Z,0.8031739914297659
2022-12-11T13:47:10.825Z,0.7436291544732442
2022-12-11T13:53:37.811Z,0.6693000104515049
2022-12-11T14:00:06.025Z,0.7204568614130434
2022-12-11T14:06:31.230Z,0.7022124529682274
2022-12-11T14:12:57.757Z,0.7756342757107023
2022-12-11T14:19:24.663Z,0.6580280622909699
2022-12-11T14:25:50.455Z,0.4529623484531773
2022-12-11T14:32:16.455Z,0.5519361413043479
2022-12-11T14:43:35.320Z,0.6296587583612041
2022-12-11T14:51:43.770Z,0.5394309155518394
2022-12-11T14:58:10.340Z,0.7061252351588629
2022-12-11T15:04:37.595Z,0.6913050010451505
2022-12-11T15:13:31.451Z,0.4658333768812709
2022-12-11T15:22:28.230Z,0.5546613712374582
2022-12-11T15:28:53.549Z,0.5828595317725752
2022-12-11T15:35:26.851Z,0.5018479567307692
2022-12-11T15:42:56.472Z,0.5100118885869566
2022-12-11T15:55:17.496Z,0.3879356971153846
2022-12-11T16:01:42.591Z,0.17306843122909696
2022-12-11T16:12:08.970Z,0.2719899665551839
2022-12-11T16:25:07.487Z,-0.002245767140468227
2022-12-11T16:37:22.963Z,0.18834395903010034
2022-12-11T16:43:48.988Z,0.06812878867056857
2022-12-11T17:00:07.452Z,-0.08078294836956523
2022-12-11T17:08:03.877Z,0.0041734165969899584
2022-12-11T17:14:36.346Z,0.08111543687290969
2022-12-11T17:21:03.225Z,0.12924527069397995
2022-12-11T17:27:29.164Z,0.18662076714046824
2022-12-11T17:33:55.479Z,0.07318209134615385
2022-12-11T17:41:29.127Z,0.06337923285953177
2022-12-11T17:47:54.303Z,-0.04423403532608695
2022-12-11T18:12:29.837Z,-0.4863333507525084
2022-12-11T18:19:10.438Z,-0.41304674435618727
2022-12-11T18:25:39.266Z,-0.4674030622909699
2022-12-11T18:32:08.518Z,-0.42202524038461536
2022-12-11T18:38:33.870Z,-0.5333977842809364
2022-12-11T18:44:59.789Z,-0.5429961852006688
2022-12-11T18:51:27.429Z,-0.6378148515886288
2022-12-11T18:57:56.827Z,-0.6640801369147156
2022-12-11T19:04:23.615Z,-0.6308325930183946
2022-12-11T19:10:49.394Z,-0.6046509197324414
2022-12-11T19:23:52.313Z,-0.7467763639214047
2022-12-11T19:30:22.730Z,-0.7966489862040134
2022-12-11T20:55:46.531Z,-0.8287664611204013
2022-12-11T20:58:36.800Z,-0.7467763639214047
2022-12-11T21:06:36.421Z,-0.8847473348662208
2022-12-11T21:13:23.581Z,-0.9465895432692307
2022-12-11T21:23:07.013Z,-0.9237752142558526
2022-12-11T21:29:28.315Z,-0.9708788409280938
2022-12-11T21:35:49.663Z,-0.8966659698996655
2022-12-11T21:42:12.789Z,-0.9689008936036789
2022-12-11T21:48:35.545Z,-0.9200668896321071
2022-12-11T21:54:54.628Z,-0.8608055497491639
2022-12-11T22:01:18.585Z,-0.825030048076923
2022-12-11T22:07:40.586Z,-0.9941889632107025
2022-12-11T22:18:35.325Z,-1.0600987667224082
2022-12-11T22:25:39.439Z,-1.0602666440217392
2022-12-11T22:34:56.098Z,-1.2001600386705684
2022-12-11T22:41:22.166Z,-1.1877194816053511
2022-12-11T22:47:42.531Z,-1.279846885451505
2022-12-11T22:54:03.546Z,-1.3444182431020066
2022-12-11T23:00:24.419Z,-1.406854880852843
2022-12-11T23:06:45.102Z,-1.442192072533445
2022-12-11T23:18:31.796Z,-1.553778872282609
2022-12-11T23:24:52.902Z,-1.5816719795150502
2022-12-11T23:34:24.663Z,-1.690998641304348
2022-12-11T23:40:43.892Z,-1.6730860681438127
2022-12-11T23:50:54.098Z,-1.8332429713628762
